sensor_id;sensor_type;location;lat;lon;timestamp;pressure;altitude;pressure_sealevel;temperature;humidity
61037;BME280;57313;47.040;15.498;2022-10-01T00:01:01;96670.94;;;12.74;100.00
61037;BME280;57313;47.040;15.498;2022-10-01T00:03:28;96677.09;;;12.73;100.00
61037;BME280;57313;47.040;15.498;2022-10-01T00:06:00;96672.81;;;12.72;100.00
61037;BME280;57313;47.040;15.498;2022-10-01T00:08:29;96672.25;;;12.68;100.00
61037;BME280;57313;47.040;15.498;2022-10-01T00:10:57;96667.47;;;12.73;100.00
61037;BME280;57313;47.040;15.498;2022-10-01T00:13:24;96678.03;;;12.72;100.00
61037;BME280;57313;47.040;15.498;2022-10-01T00:15:51;96671.66;;;12.65;100.00
61037;BME280;57313;47.040;15.498;2022-10-01T00:18:20;96676.88;;;12.65;100.00
61037;BME280;57313;47.040;15.498;2022-10-01T00:20:47;96678.28;;;12.69;100.00
61037;BME280;57313;47.040;15.498;2022-10-01T00:23:14;96680.06;;;12.68;100.00
61037;BME280;57313;47.040;15.498;2022-10-01T00:25:42;96665.94;;;12.71;100.00
61037;BME280;57313;47.040;15.498;2022-10-01T00:28:09;96669.50;;;12.70;100.00
61037;BME280;57313;47.040;15.498;2022-10-01T00:30:36;96677.34;;;12.70;100.00
61037;BME280;57313;47.040;15.498;2022-10-01T00:33:06;96678.28;;;12.69;100.00
61037;BME280;57313;47.040;15.498;2022-10-01T00:35:35;96672.13;;;12.70;100.00
61037;BME280;57313;47.040;15.498;2022-10-01T00:38:02;96671.88;;;12.73;100.00
61037;BME280;57313;47.040;15.498;2022-10-01T00:40:29;96671.31;;;12.69;100.00
61037;BME280;57313;47.040;15.498;2022-10-01T00:42:57;96667.72;;;12.70;100.00
61037;BME280;57313;47.040;15.498;2022-10-01T00:45:24;96662.59;;;12.69;100.00
61037;BME280;57313;47.040;15.498;2022-10-01T00:47:54;96665.34;;;12.67;100.00
61037;BME280;57313;47.040;15.498;2022-10-01T00:50:28;96663.94;;;12.63;100.00
61037;BME280;57313;47.040;15.498;2022-10-01T00:53:01;96654.81;;;12.57;100.00
61037;BME280;57313;47.040;15.498;2022-10-01T00:55:33;96673.91;;;12.58;100.00
61037;BME280;57313;47.040;15.498;2022-10-01T00:58:03;96678.44;;;12.56;100.00
61037;BME280;57313;47.040;15.498;2022-10-01T01:00:31;96662.75;;;12.56;100.00
61037;BME280;57313;47.040;15.498;2022-10-01T01:02:58;96661.94;;;12.55;100.00
61037;BME280;57313;47.040;15.498;2022-10-01T01:05:26;96649.00;;;12.54;100.00
61037;BME280;57313;47.040;15.498;2022-10-01T01:07:53;96646.38;;;12.54;100.00
61037;BME280;57313;47.040;15.498;2022-10-01T01:10:28;96659.31;;;12.55;100.00
61037;BME280;57313;47.040;15.498;2022-10-01T01:13:08;96646.16;;;12.57;100.00
61037;BME280;57313;47.040;15.498;2022-10-01T01:15:41;96643.66;;;12.55;100.00
61037;BME280;57313;47.040;15.498;2022-10-01T01:18:18;96636.63;;;12.56;100.00
61037;BME280;57313;47.040;15.498;2022-10-01T01:21:05;96637.22;;;12.60;100.00
61037;BME280;57313;47.040;15.498;2022-10-01T01:26:48;96625.50;;;12.54;100.00
61037;BME280;57313;47.040;15.498;2022-10-01T01:29:25;96620.38;;;12.52;100.00
61037;BME280;57313;47.040;15.498;2022-10-01T01:32:01;96602.94;;;12.53;100.00
61037;BME280;57313;47.040;15.498;2022-10-01T01:34:30;96607.22;;;12.54;100.00
61037;BME280;57313;47.040;15.498;2022-10-01T01:37:03;96606.13;;;12.56;100.00
61037;BME280;57313;47.040;15.498;2022-10-01T01:39:33;96604.34;;;12.57;100.00
61037;BME280;57313;47.040;15.498;2022-10-01T01:42:06;96600.78;;;12.58;100.00
61037;BME280;57313;47.040;15.498;2022-10-01T01:44:39;96604.59;;;12.54;100.00
61037;BME280;57313;47.040;15.498;2022-10-01T01:47:08;96607.22;;;12.54;100.00
61037;BME280;57313;47.040;15.498;2022-10-01T01:49:37;96604.00;;;12.50;100.00
61037;BME280;57313;47.040;15.498;2022-10-01T01:52:08;96598.19;;;12.47;100.00
61037;BME280;57313;47.040;15.498;2022-10-01T01:54:36;96605.09;;;12.48;100.00
61037;BME280;57313;47.040;15.498;2022-10-01T01:57:04;96609.59;;;12.46;100.00
61037;BME280;57313;47.040;15.498;2022-10-01T01:59:33;96618.16;;;12.48;100.00
61037;BME280;57313;47.040;15.498;2022-10-01T02:02:03;96604.72;;;12.52;100.00
61037;BME280;57313;47.040;15.498;2022-10-01T02:04:34;96602.94;;;12.53;100.00
61037;BME280;57313;47.040;15.498;2022-10-01T02:07:16;96595.91;;;12.53;100.00
61037;BME280;57313;47.040;15.498;2022-10-01T02:09:51;96599.38;;;12.54;100.00
61037;BME280;57313;47.040;15.498;2022-10-01T02:12:30;96598.66;;;12.52;100.00
61037;BME280;57313;47.040;15.498;2022-10-01T02:15:08;96599.50;;;12.52;100.00
61037;BME280;57313;47.040;15.498;2022-10-01T02:17:48;96613.88;;;12.47;100.00
61037;BME280;57313;47.040;15.498;2022-10-01T02:20:23;96611.25;;;12.47;100.00
61037;BME280;57313;47.040;15.498;2022-10-01T02:22:55;96614.09;;;12.44;100.00
61037;BME280;57313;47.040;15.498;2022-10-01T02:25:28;96620.38;;;12.41;100.00
61037;BME280;57313;47.040;15.498;2022-10-01T02:28:01;96619.56;;;12.41;100.00
61037;BME280;57313;47.040;15.498;2022-10-01T02:30:33;96624.66;;;12.42;100.00
61037;BME280;57313;47.040;15.498;2022-10-01T02:33:08;96626.47;;;12.42;100.00
61037;BME280;57313;47.040;15.498;2022-10-01T02:35:38;96625.50;;;12.43;100.00
61037;BME280;57313;47.040;15.498;2022-10-01T02:38:07;96626.09;;;12.46;100.00
61037;BME280;57313;47.040;15.498;2022-10-01T02:40:39;96626.91;;;12.47;100.00
61037;BME280;57313;47.040;15.498;2022-10-01T02:43:11;96635.56;;;12.47;100.00
61037;BME280;57313;47.040;15.498;2022-10-01T02:45:43;96626.09;;;12.46;100.00
61037;BME280;57313;47.040;15.498;2022-10-01T02:48:15;96630.34;;;12.47;100.00
61037;BME280;57313;47.040;15.498;2022-10-01T02:50:47;96622.75;;;12.44;100.00
61037;BME280;57313;47.040;15.498;2022-10-01T02:53:19;96629.78;;;12.44;100.00
61037;BME280;57313;47.040;15.498;2022-10-01T02:55:48;96622.88;;;12.43;100.00
61037;BME280;57313;47.040;15.498;2022-10-01T02:58:18;96625.38;;;12.44;100.00
61037;BME280;57313;47.040;15.498;2022-10-01T03:00:46;96632.25;;;12.45;100.00
61037;BME280;57313;47.040;15.498;2022-10-01T03:03:15;96607.94;;;12.45;100.00
61037;BME280;57313;47.040;15.498;2022-10-01T03:05:42;96625.13;;;12.47;100.00
61037;BME280;57313;47.040;15.498;2022-10-01T03:08:10;96640.81;;;12.47;100.00
61037;BME280;57313;47.040;15.498;2022-10-01T03:10:37;96625.13;;;12.47;100.00
61037;BME280;57313;47.040;15.498;2022-10-01T03:13:10;96630.47;;;12.46;100.00
61037;BME280;57313;47.040;15.498;2022-10-01T03:15:38;96637.59;;;12.44;100.00
61037;BME280;57313;47.040;15.498;2022-10-01T03:18:06;96650.78;;;12.42;100.00
61037;BME280;57313;47.040;15.498;2022-10-01T03:20:35;96632.38;;;12.44;100.00
61037;BME280;57313;47.040;15.498;2022-10-01T03:23:03;96632.38;;;12.44;100.00
61037;BME280;57313;47.040;15.498;2022-10-01T03:25:31;96641.16;;;12.43;100.00
61037;BME280;57313;47.040;15.498;2022-10-01T03:27:58;96634.31;;;12.42;100.00
61037;BME280;57313;47.040;15.498;2022-10-01T03:30:26;96636.91;;;12.42;100.00
61037;BME280;57313;47.040;15.498;2022-10-01T03:32:54;96633.56;;;12.39;100.00
61037;BME280;57313;47.040;15.498;2022-10-01T03:35:21;96626.94;;;12.35;100.00
61037;BME280;57313;47.040;15.498;2022-10-01T03:37:51;96636.41;;;12.36;100.00
61037;BME280;57313;47.040;15.498;2022-10-01T03:40:18;96642.50;;;12.37;100.00
61037;BME280;57313;47.040;15.498;2022-10-01T03:42:46;96639.75;;;12.38;100.00
61037;BME280;57313;47.040;15.498;2022-10-01T03:45:13;96645.81;;;12.39;100.00
61037;BME280;57313;47.040;15.498;2022-10-01T03:47:41;96652.56;;;12.42;100.00
61037;BME280;57313;47.040;15.498;2022-10-01T03:50:08;96649.13;;;12.41;100.00
61037;BME280;57313;47.040;15.498;2022-10-01T03:52:36;96637.84;;;12.41;100.00
61037;BME280;57313;47.040;15.498;2022-10-01T03:55:05;96631.69;;;12.42;100.00
61037;BME280;57313;47.040;15.498;2022-10-01T03:57:32;96641.53;;;12.38;100.00
61037;BME280;57313;47.040;15.498;2022-10-01T04:00:00;96644.38;;;12.35;100.00
61037;BME280;57313;47.040;15.498;2022-10-01T04:02:27;96637.16;;;12.38;100.00
61037;BME280;57313;47.040;15.498;2022-10-01T04:04:55;96640.81;;;12.36;100.00
61037;BME280;57313;47.040;15.498;2022-10-01T04:07:22;96648.06;;;12.32;100.00
61037;BME280;57313;47.040;15.498;2022-10-01T04:09:49;96648.19;;;12.31;100.00
61037;BME280;57313;47.040;15.498;2022-10-01T04:12:18;96657.91;;;12.29;100.00
61037;BME280;57313;47.040;15.498;2022-10-01T04:14:46;96646.41;;;12.31;100.00
61037;BME280;57313;47.040;15.498;2022-10-01T04:17:13;96646.53;;;12.30;100.00
61037;BME280;57313;47.040;15.498;2022-10-01T04:19:40;96649.13;;;12.30;100.00
61037;BME280;57313;47.040;15.498;2022-10-01T04:22:07;96635.97;;;12.31;100.00
61037;BME280;57313;47.040;15.498;2022-10-01T04:24:34;96638.00;;;12.28;100.00
61037;BME280;57313;47.040;15.498;2022-10-01T04:27:02;96641.31;;;12.30;100.00
61037;BME280;57313;47.040;15.498;2022-10-01T04:29:32;96646.75;;;12.27;100.00
61037;BME280;57313;47.040;15.498;2022-10-01T04:32:05;96654.47;;;12.28;100.00
61037;BME280;57313;47.040;15.498;2022-10-01T04:34:33;96645.22;;;12.24;100.00
61037;BME280;57313;47.040;15.498;2022-10-01T04:37:00;96641.66;;;12.25;100.00
61037;BME280;57313;47.040;15.498;2022-10-01T04:39:27;96645.94;;;12.26;100.00
61037;BME280;57313;47.040;15.498;2022-10-01T04:41:55;96629.66;;;12.23;100.00
61037;BME280;57313;47.040;15.498;2022-10-01T04:44:22;96638.22;;;12.25;100.00
61037;BME280;57313;47.040;15.498;2022-10-01T04:46:51;96641.41;;;12.28;100.00
61037;BME280;57313;47.040;15.498;2022-10-01T04:49:18;96638.81;;;12.28;100.00
61037;BME280;57313;47.040;15.498;2022-10-01T04:51:45;96624.94;;;12.28;100.00
61037;BME280;57313;47.040;15.498;2022-10-01T04:54:12;96634.53;;;12.27;100.00
61037;BME280;57313;47.040;15.498;2022-10-01T04:56:40;96641.91;;;12.22;100.00
61037;BME280;57313;47.040;15.498;2022-10-01T04:59:07;96639.41;;;12.20;100.00
61037;BME280;57313;47.040;15.498;2022-10-01T05:01:34;96627.66;;;12.15;100.00
61037;BME280;57313;47.040;15.498;2022-10-01T05:04:04;96634.53;;;12.16;100.00
61037;BME280;57313;47.040;15.498;2022-10-01T05:06:31;96645.69;;;12.18;100.00
61037;BME280;57313;47.040;15.498;2022-10-01T05:08:58;96638.72;;;12.18;100.00
61037;BME280;57313;47.040;15.498;2022-10-01T05:11:26;96642.38;;;12.16;100.00
61037;BME280;57313;47.040;15.498;2022-10-01T05:13:54;96642.38;;;12.16;100.00
61037;BME280;57313;47.040;15.498;2022-10-01T05:16:21;96639.75;;;12.16;100.00
61037;BME280;57313;47.040;15.498;2022-10-01T05:18:49;96653.63;;;12.16;100.00
61037;BME280;57313;47.040;15.498;2022-10-01T05:21:18;96658.75;;;12.18;100.00
61037;BME280;57313;47.040;15.498;2022-10-01T05:23:46;96657.69;;;12.20;100.00
61037;BME280;57313;47.040;15.498;2022-10-01T05:26:14;96662.19;;;12.18;100.00
61037;BME280;57313;47.040;15.498;2022-10-01T05:28:41;96668.94;;;12.21;100.00
61037;BME280;57313;47.040;15.498;2022-10-01T05:31:09;96674.28;;;12.19;100.00
61037;BME280;57313;47.040;15.498;2022-10-01T05:33:36;96660.16;;;12.22;100.00
61037;BME280;57313;47.040;15.498;2022-10-01T05:36:06;96654.25;;;12.20;100.00
61037;BME280;57313;47.040;15.498;2022-10-01T05:38:36;96660.28;;;12.20;100.00
61037;BME280;57313;47.040;15.498;2022-10-01T05:41:03;96668.00;;;12.22;100.00
61037;BME280;57313;47.040;15.498;2022-10-01T05:43:31;96663.72;;;12.21;100.00
61037;BME280;57313;47.040;15.498;2022-10-01T05:45:59;96668.00;;;12.22;100.00
61037;BME280;57313;47.040;15.498;2022-10-01T05:48:27;96672.41;;;12.21;100.00
61037;BME280;57313;47.040;15.498;2022-10-01T05:50:55;96673.09;;;12.24;100.00
61037;BME280;57313;47.040;15.498;2022-10-01T05:53:24;96673.22;;;12.22;100.00
61037;BME280;57313;47.040;15.498;2022-10-01T05:55:54;96664.56;;;12.21;100.00
61037;BME280;57313;47.040;15.498;2022-10-01T05:58:21;96663.59;;;12.23;100.00
61037;BME280;57313;47.040;15.498;2022-10-01T06:00:49;96660.06;;;12.24;100.00
61037;BME280;57313;47.040;15.498;2022-10-01T06:03:16;96666.22;;;12.23;100.00
61037;BME280;57313;47.040;15.498;2022-10-01T06:05:44;96658.50;;;12.21;100.00
61037;BME280;57313;47.040;15.498;2022-10-01T06:08:12;96661.13;;;12.21;100.00
61037;BME280;57313;47.040;15.498;2022-10-01T06:10:40;96670.63;;;12.22;100.00
61037;BME280;57313;47.040;15.498;2022-10-01T06:13:09;96668.81;;;12.23;100.00
61037;BME280;57313;47.040;15.498;2022-10-01T06:15:37;96658.25;;;12.24;100.00
61037;BME280;57313;47.040;15.498;2022-10-01T06:18:06;96649.50;;;12.25;100.00
61037;BME280;57313;47.040;15.498;2022-10-01T06:20:34;96647.81;;;12.24;100.00
61037;BME280;57313;47.040;15.498;2022-10-01T06:23:03;96641.78;;;12.24;100.00
61037;BME280;57313;47.040;15.498;2022-10-01T06:25:32;96637.38;;;12.24;100.00
61037;BME280;57313;47.040;15.498;2022-10-01T06:28:00;96646.06;;;12.25;100.00
61037;BME280;57313;47.040;15.498;2022-10-01T06:30:30;96634.78;;;12.24;100.00
61037;BME280;57313;47.040;15.498;2022-10-01T06:32:59;96639.06;;;12.25;100.00
61037;BME280;57313;47.040;15.498;2022-10-01T06:35:26;96650.19;;;12.27;100.00
61037;BME280;57313;47.040;15.498;2022-10-01T06:37:53;96644.03;;;12.28;100.00
61037;BME280;57313;47.040;15.498;2022-10-01T06:40:21;96645.59;;;12.31;100.00
61037;BME280;57313;47.040;15.498;2022-10-01T06:42:49;96646.16;;;12.34;100.00
61037;BME280;57313;47.040;15.498;2022-10-01T06:45:22;96641.75;;;12.35;100.00
61037;BME280;57313;47.040;15.498;2022-10-01T06:47:55;96630.50;;;12.34;100.00
61037;BME280;57313;47.040;15.498;2022-10-01T06:50:23;96632.88;;;12.37;100.00
61037;BME280;57313;47.040;15.498;2022-10-01T06:52:51;96624.09;;;12.38;100.00
61037;BME280;57313;47.040;15.498;2022-10-01T06:55:20;96621.38;;;12.40;100.00
61037;BME280;57313;47.040;15.498;2022-10-01T06:57:53;96625.63;;;12.41;100.00
61037;BME280;57313;47.040;15.498;2022-10-01T07:00:21;96638.56;;;12.43;100.00
61037;BME280;57313;47.040;15.498;2022-10-01T07:02:49;96648.19;;;12.42;100.00
61037;BME280;57313;47.040;15.498;2022-10-01T07:05:18;96642.84;;;12.44;100.00
61037;BME280;57313;47.040;15.498;2022-10-01T07:07:46;96629.19;;;12.40;100.00
61037;BME280;57313;47.040;15.498;2022-10-01T07:10:14;96635.25;;;12.41;100.00
61037;BME280;57313;47.040;15.498;2022-10-01T07:12:42;96634.53;;;12.38;100.00
61037;BME280;57313;47.040;15.498;2022-10-01T07:15:10;96630.00;;;12.41;100.00
61037;BME280;57313;47.040;15.498;2022-10-01T07:17:42;96631.69;;;12.42;100.00
61037;BME280;57313;47.040;15.498;2022-10-01T07:20:09;96630.84;;;12.41;100.00
61037;BME280;57313;47.040;15.498;2022-10-01T07:22:39;96633.22;;;12.44;100.00
61037;BME280;57313;47.040;15.498;2022-10-01T07:25:07;96629.41;;;12.48;100.00
61037;BME280;57313;47.040;15.498;2022-10-01T07:27:34;96633.44;;;12.52;100.00
61037;BME280;57313;47.040;15.498;2022-10-01T07:30:01;96634.16;;;12.54;100.00
61037;BME280;57313;47.040;15.498;2022-10-01T07:32:28;96638.06;;;12.60;100.00
61037;BME280;57313;47.040;15.498;2022-10-01T07:34:56;96644.69;;;12.64;100.00
61037;BME280;57313;47.040;15.498;2022-10-01T07:37:24;96643.88;;;12.64;100.00
61037;BME280;57313;47.040;15.498;2022-10-01T07:39:53;96655.75;;;12.68;100.00
61037;BME280;57313;47.040;15.498;2022-10-01T07:42:20;96646.81;;;12.70;100.00
61037;BME280;57313;47.040;15.498;2022-10-01T07:44:48;96653.59;;;12.73;100.00
61037;BME280;57313;47.040;15.498;2022-10-01T07:47:18;96654.66;;;12.70;100.00
61037;BME280;57313;47.040;15.498;2022-10-01T07:49:45;96644.94;;;12.72;100.00
61037;BME280;57313;47.040;15.498;2022-10-01T07:52:12;96653.47;;;12.74;100.00
61037;BME280;57313;47.040;15.498;2022-10-01T07:54:39;96655.00;;;12.77;100.00
61037;BME280;57313;47.040;15.498;2022-10-01T07:57:09;96649.91;;;12.75;100.00
61037;BME280;57313;47.040;15.498;2022-10-01T07:59:36;96659.97;;;12.80;100.00
61037;BME280;57313;47.040;15.498;2022-10-01T08:02:03;96659.97;;;12.80;100.00
61037;BME280;57313;47.040;15.498;2022-10-01T08:04:31;96666.63;;;12.84;100.00
61037;BME280;57313;47.040;15.498;2022-10-01T08:06:58;96658.66;;;12.86;100.00
61037;BME280;57313;47.040;15.498;2022-10-01T08:09:26;96656.75;;;12.88;100.00
61037;BME280;57313;47.040;15.498;2022-10-01T08:11:54;96663.63;;;12.89;100.00
61037;BME280;57313;47.040;15.498;2022-10-01T08:14:24;96650.31;;;12.92;100.00
61037;BME280;57313;47.040;15.498;2022-10-01T08:16:53;96656.97;;;12.96;100.00
61037;BME280;57313;47.040;15.498;2022-10-01T08:19:21;96644.72;;;12.97;100.00
61037;BME280;57313;47.040;15.498;2022-10-01T08:21:48;96638.56;;;12.98;100.00
61037;BME280;57313;47.040;15.498;2022-10-01T08:24:15;96638.56;;;12.98;100.00
61037;BME280;57313;47.040;15.498;2022-10-01T08:26:43;96642.81;;;12.99;100.00
61037;BME280;57313;47.040;15.498;2022-10-01T08:29:10;96643.28;;;13.04;100.00
61037;BME280;57313;47.040;15.498;2022-10-01T08:31:44;96640.66;;;13.04;100.00
61037;BME280;57313;47.040;15.498;2022-10-01T08:34:12;96636.13;;;13.06;100.00
61037;BME280;57313;47.040;15.498;2022-10-01T08:36:39;96635.44;;;13.04;100.00
61037;BME280;57313;47.040;15.498;2022-10-01T08:39:06;96643.97;;;13.06;100.00
61037;BME280;57313;47.040;15.498;2022-10-01T08:41:43;96642.06;;;13.08;100.00
61037;BME280;57313;47.040;15.498;2022-10-01T08:44:19;96639.19;;;13.11;100.00
61037;BME280;57313;47.040;15.498;2022-10-01T08:46:49;96645.84;;;13.15;100.00
61037;BME280;57313;47.040;15.498;2022-10-01T08:49:21;96630.03;;;13.17;100.00
61037;BME280;57313;47.040;15.498;2022-10-01T08:51:54;96651.50;;;13.20;100.00
61037;BME280;57313;47.040;15.498;2022-10-01T08:54:30;96652.00;;;13.25;100.00
61037;BME280;57313;47.040;15.498;2022-10-01T08:57:02;96647.59;;;13.26;100.00
61037;BME280;57313;47.040;15.498;2022-10-01T08:59:38;96646.50;;;13.28;100.00
61037;BME280;57313;47.040;15.498;2022-10-01T09:02:16;96638.31;;;13.33;100.00
61037;BME280;57313;47.040;15.498;2022-10-01T09:04:45;96649.59;;;13.34;100.00
61037;BME280;57313;47.040;15.498;2022-10-01T09:07:25;96639.56;;;13.39;100.00
61037;BME280;57313;47.040;15.498;2022-10-01T09:10:00;96628.03;;;13.41;100.00
61037;BME280;57313;47.040;15.498;2022-10-01T09:12:39;96631.22;;;13.45;100.00
61037;BME280;57313;47.040;15.498;2022-10-01T09:15:17;96629.34;;;13.47;100.00
61037;BME280;57313;47.040;15.498;2022-10-01T09:17:58;96650.94;;;13.49;100.00
61037;BME280;57313;47.040;15.498;2022-10-01T09:20:34;96641.44;;;13.48;100.00
61037;BME280;57313;47.040;15.498;2022-10-01T09:23:14;96632.63;;;13.49;100.00
61037;BME280;57313;47.040;15.498;2022-10-01T09:25:44;96638.06;;;13.57;100.00
61037;BME280;57313;47.040;15.498;2022-10-01T09:28:18;96635.19;;;13.60;100.00
61037;BME280;57313;47.040;15.498;2022-10-01T09:30:52;96623.63;;;13.63;100.00
61037;BME280;57313;47.040;15.498;2022-10-01T09:33:23;96612.53;;;13.71;100.00
61037;BME280;57313;47.040;15.498;2022-10-01T09:36:03;96610.34;;;13.76;100.00
61037;BME280;57313;47.040;15.498;2022-10-01T09:38:37;96617.53;;;13.83;100.00
61037;BME280;57313;47.040;15.498;2022-10-01T09:41:07;96606.13;;;13.85;100.00
61037;BME280;57313;47.040;15.498;2022-10-01T09:43:37;96614.97;;;13.93;100.00
61037;BME280;57313;47.040;15.498;2022-10-01T09:46:06;96608.09;;;13.92;100.00
61037;BME280;57313;47.040;15.498;2022-10-01T09:48:41;96613.88;;;13.96;100.00
61037;BME280;57313;47.040;15.498;2022-10-01T09:51:15;96612.53;;;14.02;100.00
61037;BME280;57313;47.040;15.498;2022-10-01T09:53:46;96615.84;;;14.04;100.00
61037;BME280;57313;47.040;15.498;2022-10-01T09:56:22;96614.63;;;14.08;100.00
61037;BME280;57313;47.040;15.498;2022-10-01T09:58:55;96615.19;;;14.11;100.00
61037;BME280;57313;47.040;15.498;2022-10-01T10:01:34;96604.44;;;14.14;100.00
61037;BME280;57313;47.040;15.498;2022-10-01T10:04:08;96600.03;;;14.15;100.00
61037;BME280;57313;47.040;15.498;2022-10-01T10:06:36;96611.78;;;14.21;100.00
61037;BME280;57313;47.040;15.498;2022-10-01T10:09:14;96609.72;;;14.24;100.00
61037;BME280;57313;47.040;15.498;2022-10-01T10:11:43;96612.91;;;14.28;100.00
61037;BME280;57313;47.040;15.498;2022-10-01T10:14:15;96606.16;;;14.35;100.00
61037;BME280;57313;47.040;15.498;2022-10-01T10:16:44;96600.66;;;14.38;100.00
61037;BME280;57313;47.040;15.498;2022-10-01T10:19:21;96605.75;;;14.40;100.00
61037;BME280;57313;47.040;15.498;2022-10-01T10:21:50;96605.50;;;14.43;100.00
61037;BME280;57313;47.040;15.498;2022-10-01T10:24:24;96599.31;;;14.44;100.00
61037;BME280;57313;47.040;15.498;2022-10-01T10:26:53;96601.66;;;14.47;100.00
61037;BME280;57313;47.040;15.498;2022-10-01T10:29:25;96599.16;;;14.45;100.00
61037;BME280;57313;47.040;15.498;2022-10-01T10:31:54;96595.56;;;14.46;100.00
61037;BME280;57313;47.040;15.498;2022-10-01T10:34:30;96600.53;;;14.49;100.00
61037;BME280;57313;47.040;15.498;2022-10-01T10:37:01;96588.28;;;14.50;100.00
61037;BME280;57313;47.040;15.498;2022-10-01T10:39:32;96599.31;;;14.53;100.00
61037;BME280;57313;47.040;15.498;2022-10-01T10:42:00;96600.84;;;14.56;100.00
61037;BME280;57313;47.040;15.498;2022-10-01T10:44:30;96586.91;;;14.55;100.00
61037;BME280;57313;47.040;15.498;2022-10-01T10:47:00;96584.84;;;14.59;100.00
61037;BME280;57313;47.040;15.498;2022-10-01T10:49:33;96595.22;;;14.61;100.00
61037;BME280;57313;47.040;15.498;2022-10-01T10:52:17;96581.38;;;14.59;100.00
61037;BME280;57313;47.040;15.498;2022-10-01T10:54:47;96584.63;;;14.62;100.00
61037;BME280;57313;47.040;15.498;2022-10-01T10:57:18;96581.72;;;14.65;100.00
61037;BME280;57313;47.040;15.498;2022-10-01T10:59:54;96573.72;;;14.67;100.00
61037;BME280;57313;47.040;15.498;2022-10-01T11:02:23;96570.84;;;14.70;100.00
61037;BME280;57313;47.040;15.498;2022-10-01T11:04:54;96571.50;;;14.72;100.00
61037;BME280;57313;47.040;15.498;2022-10-01T11:07:24;96569.44;;;14.76;100.00
61037;BME280;57313;47.040;15.498;2022-10-01T11:10:03;96561.31;;;14.79;100.00
61037;BME280;57313;47.040;15.498;2022-10-01T11:12:46;96553.88;;;14.84;100.00
61037;BME280;57313;47.040;15.498;2022-10-01T11:15:29;96558.84;;;14.87;100.00
61037;BME280;57313;47.040;15.498;2022-10-01T11:21:13;96538.81;;;14.96;100.00
61037;BME280;57313;47.040;15.498;2022-10-01T11:23:58;96535.09;;;14.98;100.00
61037;BME280;57313;47.040;15.498;2022-10-01T11:26:36;96531.91;;;15.04;100.00
61037;BME280;57313;47.040;15.498;2022-10-01T11:29:19;96519.75;;;15.03;100.00
61037;BME280;57313;47.040;15.498;2022-10-01T11:31:53;96524.31;;;15.01;100.00
61037;BME280;57313;47.040;15.498;2022-10-01T11:34:44;96514.91;;;15.08;100.00
61037;BME280;57313;47.040;15.498;2022-10-01T11:37:29;96512.44;;;15.17;100.00
61037;BME280;57313;47.040;15.498;2022-10-01T11:40:10;96504.00;;;15.23;100.00
61037;BME280;57313;47.040;15.498;2022-10-01T11:42:40;96522.31;;;15.33;100.00
61037;BME280;57313;47.040;15.498;2022-10-01T11:45:14;96506.16;;;15.37;100.00
61037;BME280;57313;47.040;15.498;2022-10-01T11:47:47;96489.03;;;15.43;100.00
61037;BME280;57313;47.040;15.498;2022-10-01T11:50:18;96498.13;;;15.49;100.00
61037;BME280;57313;47.040;15.498;2022-10-01T11:52:53;96488.03;;;15.54;100.00
61037;BME280;57313;47.040;15.498;2022-10-01T11:55:26;96499.59;;;15.61;100.00
61037;BME280;57313;47.040;15.498;2022-10-01T11:57:59;96496.66;;;15.64;100.00
61037;BME280;57313;47.040;15.498;2022-10-01T12:00:29;96488.38;;;15.69;100.00
61037;BME280;57313;47.040;15.498;2022-10-01T12:02:59;96491.97;;;15.77;100.00
61037;BME280;57313;47.040;15.498;2022-10-01T12:05:31;96479.22;;;15.83;100.00
61037;BME280;57313;47.040;15.498;2022-10-01T12:08:06;96479.31;;;15.91;100.00
61037;BME280;57313;47.040;15.498;2022-10-01T12:10:40;96470.47;;;15.92;100.00
61037;BME280;57313;47.040;15.498;2022-10-01T12:13:17;96479.56;;;15.97;100.00
61037;BME280;57313;47.040;15.498;2022-10-01T12:15:52;96479.56;;;15.97;100.00
61037;BME280;57313;47.040;15.498;2022-10-01T12:18:26;96479.41;;;15.99;100.00
61037;BME280;57313;47.040;15.498;2022-10-01T12:20:58;96477.22;;;15.94;100.00
61037;BME280;57313;47.040;15.498;2022-10-01T12:23:32;96465.28;;;16.00;100.00
61037;BME280;57313;47.040;15.498;2022-10-01T12:26:08;96465.28;;;16.00;100.00
61037;BME280;57313;47.040;15.498;2022-10-01T12:28:50;96454.13;;;15.98;100.00
61037;BME280;57313;47.040;15.498;2022-10-01T12:31:31;96447.59;;;16.02;100.00
61037;BME280;57313;47.040;15.498;2022-10-01T12:34:10;96445.66;;;16.04;100.00
61037;BME280;57313;47.040;15.498;2022-10-01T12:36:46;96439.94;;;16.09;100.00
61037;BME280;57313;47.040;15.498;2022-10-01T12:39:31;96434.25;;;16.13;100.00
61037;BME280;57313;47.040;15.498;2022-10-01T12:42:21;96433.00;;;16.18;100.00
61037;BME280;57313;47.040;15.498;2022-10-01T12:45:01;96418.72;;;16.20;100.00
61037;BME280;57313;47.040;15.498;2022-10-01T12:47:41;96411.69;;;16.21;100.00
61037;BME280;57313;47.040;15.498;2022-10-01T12:50:21;96415.13;;;16.21;100.00
61037;BME280;57313;47.040;15.498;2022-10-01T12:53:02;96416.09;;;16.20;100.00
61037;BME280;57313;47.040;15.498;2022-10-01T12:55:48;96421.78;;;16.15;100.00
61037;BME280;57313;47.040;15.498;2022-10-01T12:58:30;96411.69;;;16.21;100.00
61037;BME280;57313;47.040;15.498;2022-10-01T13:01:07;96411.22;;;16.25;100.00
61037;BME280;57313;47.040;15.498;2022-10-01T13:03:54;96402.66;;;16.23;100.00
61037;BME280;57313;47.040;15.498;2022-10-01T13:06:34;96405.81;;;16.27;100.00